Time;durP1;ratioP1;P1;durP2;ratioP2;P2;SDS_P1;SDS_P2;PMS_P1;PMS_P2;Temp;Humidity;BMP_temperature;BMP_pressure;BME280_temperature;BME280_humidity;BME280_pressure;Samples;Min_cycle;Max_cycle;Signal;HPM_P1;HPM_P2
2023/04/21 00:09:24;;;;;;;370.53;26.27;;;3.90;99.90;;;;;;20795263;28;19913;-81
2023/04/21 00:19:25;;;;;;;140.93;15.65;;;3.80;99.90;;;;;;20770949;28;20106;-78
2023/04/21 00:29:26;;;;;;;403.23;27.38;;;3.80;99.90;;;;;;20761071;28;20030;-81
2023/04/21 00:39:27;;;;;;;325.95;19.67;;;3.80;99.90;;;;;;20777928;28;20046;-81
2023/04/21 00:49:27;;;;;;;312.70;24.15;;;3.90;99.90;;;;;;20804949;28;20113;-80
2023/04/21 00:59:29;;;;;;;141.48;18.42;;;3.90;99.90;;;;;;20792930;28;20038;-80
2023/04/21 01:09:31;;;;;;;180.52;17.05;;;3.90;99.90;;;;;;20791393;28;20038;-78
2023/04/21 01:19:34;;;;;;;52.10;14.70;;;3.80;99.90;;;;;;20777285;28;20485;-78
2023/04/21 01:29:36;;;;;;;38.92;14.65;;;3.60;99.90;;;;;;20783089;28;20030;-79
2023/04/21 01:39:40;;;;;;;293.42;23.10;;;3.60;99.90;;;;;;20785325;28;20037;-79
2023/04/21 01:49:40;;;;;;;163.48;17.98;;;3.70;99.90;;;;;;20804492;28;20085;-79
2023/04/21 01:59:41;;;;;;;78.93;15.65;;;3.60;99.90;;;;;;20824633;28;20041;-78
2023/04/21 02:09:42;;;;;;;138.80;21.45;;;3.50;99.90;;;;;;20781059;28;20044;-78
2023/04/21 02:19:43;;;;;;;37.58;12.88;;;3.40;99.90;;;;;;20796815;28;20109;-78
2023/04/21 02:29:44;;;;;;;28.48;13.07;;;3.40;99.90;;;;;;20860643;28;20403;-78
2023/04/21 02:39:45;;;;;;;33.00;12.70;;;3.50;99.90;;;;;;20858479;28;20026;-78
2023/04/21 02:49:45;;;;;;;29.92;12.15;;;3.50;99.90;;;;;;20852875;28;20038;-77
2023/04/21 02:59:46;;;;;;;25.33;11.65;;;3.60;99.90;;;;;;20793333;28;20034;-77
2023/04/21 03:09:47;;;;;;;32.08;11.80;;;3.80;99.90;;;;;;20762267;28;20136;-77
2023/04/21 03:19:48;;;;;;;30.27;11.88;;;3.70;99.90;;;;;;20783094;28;20034;-77
2023/04/21 03:29:48;;;;;;;18.95;8.32;;;3.70;99.90;;;;;;20832539;28;20065;-78
2023/04/21 03:39:49;;;;;;;13.10;6.60;;;3.60;99.90;;;;;;20837100;28;20388;-78
2023/04/21 03:49:52;;;;;;;15.02;6.80;;;3.60;99.90;;;;;;20791008;28;20029;-79
2023/04/21 03:59:53;;;;;;;13.73;6.32;;;3.50;99.90;;;;;;20802649;28;20523;-77
2023/04/21 04:09:53;;;;;;;9.23;5.10;;;3.40;99.90;;;;;;20769808;28;20087;-76
2023/04/21 04:19:54;;;;;;;7.13;4.35;;;3.20;99.90;;;;;;20806929;28;20064;-81
2023/04/21 04:29:56;;;;;;;13.68;3.80;;;2.90;99.90;;;;;;20824727;28;20048;-80
2023/04/21 04:39:58;;;;;;;7.43;4.07;;;2.90;99.90;;;;;;20828030;28;20033;-79
2023/04/21 04:49:59;;;;;;;8.80;3.55;;;2.80;99.90;;;;;;20828042;28;20435;-79
2023/04/21 04:59:59;;;;;;;5.47;3.08;;;2.70;99.90;;;;;;20833405;28;20056;-79
2023/04/21 05:10:03;;;;;;;5.45;3.25;;;2.70;99.90;;;;;;20831612;28;20079;-79
2023/04/21 05:20:05;;;;;;;6.95;3.08;;;2.80;99.90;;;;;;20803821;28;20069;-80
2023/04/21 05:30:07;;;;;;;4.13;2.80;;;3.00;99.90;;;;;;20737572;28;20035;-80
2023/04/21 05:40:08;;;;;;;8.48;4.03;;;3.30;99.90;;;;;;20762102;28;20034;-78
2023/04/21 05:50:09;;;;;;;6.97;3.80;;;3.80;99.90;;;;;;20801407;28;20022;-78
2023/04/21 06:00:10;;;;;;;10.57;4.53;;;3.80;99.90;;;;;;20858932;28;20128;-78
2023/04/21 06:10:13;;;;;;;10.27;5.03;;;4.10;99.90;;;;;;20857457;28;20112;-77
2023/04/21 06:20:13;;;;;;;8.38;4.75;;;4.40;99.90;;;;;;20852413;28;20038;-78
2023/04/21 06:30:14;;;;;;;9.45;5.03;;;4.90;99.90;;;;;;20805490;28;20057;-78
2023/04/21 06:40:15;;;;;;;8.25;4.72;;;5.30;99.90;;;;;;20770988;28;20030;-78
2023/04/21 06:50:16;;;;;;;;;;;5.80;99.90;;;;;;20763951;28;20037;-78
2023/04/21 07:00:17;;;;;;;11.57;5.43;;;6.00;99.90;;;;;;20776516;28;19914;-78
2023/04/21 07:10:18;;;;;;;;;;;5.90;99.90;;;;;;20778579;28;20037;-78
2023/04/21 07:20:19;;;;;;;11.65;5.22;;;6.80;99.90;;;;;;20802982;28;19912;-78
2023/04/21 07:30:20;;;;;;;7.53;4.67;;;8.10;99.90;;;;;;20859395;28;20063;-78
2023/04/21 07:40:21;;;;;;;13.50;8.53;;;8.60;99.90;;;;;;20854692;28;20353;-78
2023/04/21 07:50:21;;;;;;;6.50;3.83;;;9.00;99.90;;;;;;20861865;28;20029;-78
2023/04/21 08:00:24;;;;;;;7.45;3.67;;;9.70;99.90;;;;;;20859981;28;20507;-79
2023/04/21 08:10:24;;;;;;;6.68;4.07;;;9.50;99.90;;;;;;20854460;28;20029;-79
2023/04/21 08:20:25;;;;;;;7.43;3.77;;;9.10;99.90;;;;;;20859644;28;20034;-79
2023/04/21 08:30:27;;;;;;;4.20;2.50;;;9.90;99.90;;;;;;20861478;28;20029;-78
2023/04/21 08:40:36;;;;;;;4.75;2.85;;;10.30;99.90;;;;;;20864649;28;20035;-78
2023/04/21 08:50:38;;;;;;;5.93;3.78;;;10.20;99.90;;;;;;20854132;28;20071;-78
2023/04/21 09:00:40;;;;;;;8.32;5.00;;;9.40;99.90;;;;;;20864750;28;20513;-78
2023/04/21 09:10:46;;;;;;;7.38;4.68;;;9.90;99.90;;;;;;20862540;28;20041;-78
2023/04/21 09:20:50;;;;;;;6.65;4.20;;;10.30;99.90;;;;;;20867949;28;20029;-79
2023/04/21 09:30:55;;;;;;;8.27;4.00;;;11.20;99.90;;;;;;20872063;28;20033;-79
2023/04/21 09:40:57;;;;;;;6.35;3.97;;;12.10;99.90;;;;;;20880795;28;20025;-79
2023/04/21 09:50:58;;;;;;;5.40;3.85;;;13.00;99.90;;;;;;20882706;28;20042;-79
2023/04/21 10:00:59;;;;;;;8.63;5.43;;;12.80;99.90;;;;;;20885703;28;20115;-80
2023/04/21 10:11:00;;;;;;;7.30;3.93;;;13.20;99.90;;;;;;20883540;28;20291;-79
2023/04/21 10:21:05;;;;;;;6.07;3.72;;;14.10;99.90;;;;;;20850112;28;20119;-79
2023/04/21 10:31:48;;;;;;;7.65;3.92;;;13.00;99.90;;;;;;20799842;28;20168;-80
2023/04/21 10:41:50;;;;;;;8.67;3.23;;;14.10;99.90;;;;;;20790430;28;20029;-79
2023/04/21 10:52:01;;;;;;;6.40;4.13;;;14.60;99.90;;;;;;20830375;28;20646;-79
2023/04/21 11:02:12;;;;;;;9.17;4.30;;;13.70;99.90;;;;;;20878452;28;20507;-79
2023/04/21 11:12:17;;;;;;;6.67;4.10;;;13.60;99.90;;;;;;20875337;28;20120;-79
2023/04/21 11:22:20;;;;;;;6.47;4.35;;;13.90;99.90;;;;;;20838176;28;20026;-80
2023/04/21 11:32:21;;;;;;;6.00;3.83;;;13.00;99.90;;;;;;20794003;28;20105;-79
2023/04/21 11:42:21;;;;;;;8.00;4.87;;;12.90;99.90;;;;;;20786638;28;20030;-79
2023/04/21 11:52:34;;;;;;;15.80;6.63;;;11.80;99.90;;;;;;20823946;28;20052;-79
2023/04/21 12:02:35;;;;;;;10.70;6.65;;;11.40;99.90;;;;;;20866107;28;20040;-79
2023/04/21 12:12:40;;;;;;;11.17;6.67;;;11.30;99.90;;;;;;20863653;28;20030;-79
2023/04/21 12:22:41;;;;;;;9.65;6.03;;;11.40;99.90;;;;;;20821351;28;20037;-78
2023/04/21 12:32:42;;;;;;;9.37;6.23;;;12.00;99.90;;;;;;20778206;28;20109;-78
2023/04/21 12:42:42;;;;;;;8.43;5.23;;;12.30;99.90;;;;;;20791562;28;20034;-77
2023/04/21 12:52:43;;;;;;;9.00;5.50;;;12.50;99.90;;;;;;20793685;28;20091;-78
2023/04/21 13:02:44;;;;;;;7.43;4.90;;;12.60;99.90;;;;;;20768931;28;20033;-78
2023/04/21 13:12:45;;;;;;;8.23;4.67;;;13.00;99.90;;;;;;20766989;28;20060;-78
2023/04/21 13:22:46;;;;;;;6.40;4.13;;;12.70;99.90;;;;;;20801916;28;20056;-78
2023/04/21 13:32:47;;;;;;;5.17;3.63;;;12.60;99.90;;;;;;20805810;28;20401;-77
2023/04/21 13:42:48;;;;;;;7.05;4.97;;;12.30;99.90;;;;;;20781678;28;20113;-78
2023/04/21 13:52:49;;;;;;;7.43;4.33;;;12.30;99.90;;;;;;20807003;28;20034;-79
2023/04/21 14:02:50;;;;;;;6.97;3.50;;;11.80;99.90;;;;;;20804936;28;20053;-79
2023/04/21 14:12:51;;;;;;;5.50;2.83;;;11.30;99.90;;;;;;20793374;28;20038;-78
2023/04/21 14:22:51;;;;;;;7.43;4.57;;;11.40;99.90;;;;;;20793666;28;20025;-78
2023/04/21 14:32:52;;;;;;;8.10;4.80;;;11.80;99.90;;;;;;20788622;28;20044;-78
2023/04/21 14:42:53;;;;;;;11.70;4.20;;;12.00;99.90;;;;;;20769816;28;20057;-78
2023/04/21 14:52:54;;;;;;;7.50;4.50;;;11.80;99.90;;;;;;20708717;28;20045;-78
2023/04/21 15:02:55;;;;;;;9.30;4.90;;;11.50;99.90;;;;;;20789697;28;20026;-78
2023/04/21 15:12:56;;;;;;;6.27;4.00;;;11.50;99.90;;;;;;20802598;28;20034;-78
2023/04/21 15:22:57;;;;;;;6.00;3.23;;;11.80;99.90;;;;;;20798505;28;20056;-78
2023/04/21 15:32:57;;;;;;;7.63;3.73;;;12.20;99.90;;;;;;20843585;28;20284;-78
2023/04/21 15:42:58;;;;;;;6.80;4.03;;;12.20;99.90;;;;;;20886957;28;20021;-79
2023/04/21 15:53:03;;;;;;;8.97;5.13;;;12.30;99.90;;;;;;20884781;28;20010;-76
2023/04/21 16:03:04;;;;;;;16.13;4.60;;;12.10;99.90;;;;;;20881795;28;20034;-78
2023/04/21 16:13:05;;;;;;;5.00;3.37;;;12.00;99.90;;;;;;20866535;28;20041;-78
2023/04/21 16:23:06;;;;;;;6.90;4.00;;;11.80;99.90;;;;;;20860860;28;20048;-78
2023/04/21 16:33:09;;;;;;;11.57;6.47;;;11.40;99.90;;;;;;20820763;28;20102;-78
2023/04/21 16:43:10;;;;;;;8.48;4.65;;;11.60;99.90;;;;;;20777229;28;20034;-79
2023/04/21 16:53:11;;;;;;;21.63;8.33;;;11.70;99.90;;;;;;20798045;28;20493;-78
2023/04/21 17:03:12;;;;;;;9.57;5.17;;;11.60;99.90;;;;;;20787697;28;20060;-79
2023/04/21 17:13:13;;;;;;;12.20;5.40;;;11.40;99.90;;;;;;20801540;28;20038;-79
2023/04/21 17:23:13;;;;;;;7.57;4.17;;;11.50;99.90;;;;;;20809391;28;20037;-79
2023/04/21 17:33:15;;;;;;;4.33;3.23;;;11.20;99.90;;;;;;20811719;28;20060;-79
2023/04/21 17:43:15;;;;;;;6.30;3.38;;;11.00;99.90;;;;;;20813174;28;20531;-78
2023/04/21 17:53:16;;;;;;;7.03;3.67;;;10.40;99.90;;;;;;20805113;28;20031;-78
2023/04/21 18:03:17;;;;;;;7.67;5.13;;;10.40;99.90;;;;;;20787016;28;20049;-78
2023/04/21 18:13:18;;;;;;;8.07;5.37;;;10.20;99.90;;;;;;20801562;28;20030;-79
2023/04/21 18:23:20;;;;;;;6.07;3.40;;;10.20;99.90;;;;;;20792814;28;20048;-79
2023/04/21 18:33:21;;;;;;;5.47;3.72;;;9.90;99.90;;;;;;20832949;28;20030;-79
2023/04/21 18:43:21;;;;;;;7.83;4.70;;;10.00;99.90;;;;;;20777684;28;20128;-79
2023/04/21 18:53:22;;;;;;;11.43;5.33;;;9.80;99.90;;;;;;20799300;28;20036;-78
2023/04/21 19:03:23;;;;;;;8.17;5.17;;;9.60;99.90;;;;;;20789208;28;20053;-79
2023/04/21 19:13:25;;;;;;;7.68;4.80;;;9.60;99.90;;;;;;20826748;28;20042;-79
2023/04/21 19:23:25;;;;;;;8.98;4.60;;;9.70;99.90;;;;;;20782250;28;20529;-79
2023/04/21 19:33:26;;;;;;;5.60;3.17;;;9.60;99.90;;;;;;20799301;28;20191;-79
2023/04/21 19:43:27;;;;;;;7.43;4.40;;;9.20;99.90;;;;;;20792999;28;20042;-80
2023/04/21 19:53:28;;;;;;;7.53;5.00;;;9.30;99.90;;;;;;20794835;28;20057;-80
2023/04/21 20:03:30;;;;;;;6.93;4.50;;;9.40;99.90;;;;;;20798401;28;20030;-80
2023/04/21 20:13:30;;;;;;;5.95;4.00;;;9.40;99.90;;;;;;20793589;28;20030;-81
2023/04/21 20:23:31;;;;;;;9.97;4.03;;;9.30;99.90;;;;;;20794897;28;20044;-79
2023/04/21 20:33:32;;;;;;;5.27;3.20;;;9.20;99.90;;;;;;20789691;28;20026;-79
2023/04/21 20:43:33;;;;;;;6.93;3.50;;;9.20;99.90;;;;;;20798120;28;20476;-78
2023/04/21 20:53:34;;;;;;;4.07;2.87;;;9.20;99.90;;;;;;20812820;28;20038;-78
2023/04/21 21:03:35;;;;;;;5.78;3.00;;;9.00;99.90;;;;;;20817242;28;20034;-78
2023/04/21 21:13:36;;;;;;;6.30;3.77;;;9.00;99.90;;;;;;20813843;28;20037;-79
2023/04/21 21:23:37;;;;;;;9.03;5.20;;;9.00;99.90;;;;;;20813573;28;20037;-78
2023/04/21 21:33:37;;;;;;;8.57;4.33;;;8.90;99.90;;;;;;20798539;28;20030;-77
2023/04/21 21:43:38;;;;;;;6.80;4.13;;;9.00;99.90;;;;;;20769879;28;20400;-78
2023/04/21 21:53:39;;;;;;;8.53;4.23;;;8.90;99.90;;;;;;20756682;28;20400;-77
2023/04/21 22:03:40;;;;;;;9.80;3.90;;;8.90;99.90;;;;;;20764627;28;20085;-77
2023/04/21 22:13:40;;;;;;;7.20;4.40;;;8.80;99.90;;;;;;20770867;28;20033;-78
2023/04/21 22:23:41;;;;;;;10.33;6.07;;;8.80;99.90;;;;;;20761468;28;20456;-78
2023/04/21 22:33:42;;;;;;;15.10;6.30;;;8.80;99.90;;;;;;20766251;28;20091;-79
2023/04/21 22:43:43;;;;;;;16.60;7.43;;;8.80;99.90;;;;;;20763330;28;20029;-79
2023/04/21 22:53:44;;;;;;;17.30;7.37;;;8.70;99.90;;;;;;20760261;28;20045;-78
2023/04/21 23:03:44;;;;;;;15.40;7.13;;;8.60;99.90;;;;;;20762419;28;20041;-77
2023/04/21 23:13:45;;;;;;;11.97;6.97;;;8.50;99.90;;;;;;20768103;28;20034;-80
2023/04/21 23:23:46;;;;;;;10.83;6.90;;;8.30;99.90;;;;;;20761126;28;20117;-79
2023/04/21 23:33:47;;;;;;;11.17;5.77;;;8.30;99.90;;;;;;20788519;28;20040;-78
2023/04/21 23:43:48;;;;;;;9.40;4.70;;;8.20;99.90;;;;;;20842862;28;20034;-79
2023/04/21 23:53:48;;;;;;;13.40;5.37;;;8.10;99.90;;;;;;20842941;28;20116;-79
